Time;durP1;ratioP1;P1;durP2;ratioP2;P2;SDS_P1;SDS_P2;PMS_P1;PMS_P2;Temp;Humidity;BMP_temperature;BMP_pressure;BME280_temperature;BME280_humidity;BME280_pressure;Samples;Min_cycle;Max_cycle;Signal;HPM_P1;HPM_P2
2022/11/08 00:01:33;;;;;;;17.15;2.80;;;12.40;99.90;;;;;;5000172;28;20075;-51
2022/11/08 00:04:08;;;;;;;15.60;3.15;;;12.60;99.90;;;;;;5007499;28;20084;-53
2022/11/08 00:14:48;;;;;;;18.83;4.05;;;12.40;99.90;;;;;;5002745;28;20081;-51
2022/11/08 00:17:16;;;;;;;15.80;3.20;;;12.40;99.90;;;;;;5002174;28;20463;-48
2022/11/08 00:19:42;;;;;;;14.57;2.97;;;12.30;99.90;;;;;;5005849;28;20050;-48
2022/11/08 00:22:09;;;;;;;18.30;3.25;;;12.60;99.90;;;;;;4999550;28;20163;-50
2022/11/08 00:24:35;;;;;;;14.85;3.17;;;12.40;99.90;;;;;;5005299;28;20049;-47
2022/11/08 00:27:06;;;;;;;14.95;3.10;;;14.30;99.90;;;;;;5003796;28;20099;-51
2022/11/08 00:29:35;;;;;;;12.67;2.97;;;12.50;99.90;;;;;;5004107;28;20045;-53
2022/11/08 00:32:05;;;;;;;17.52;2.75;;;12.50;99.90;;;;;;5004158;28;20048;-48
2022/11/08 00:34:32;;;;;;;15.48;2.95;;;12.50;99.90;;;;;;5005224;28;20883;-52
2022/11/08 00:36:57;;;;;;;19.08;3.63;;;12.40;99.90;;;;;;5005703;28;20038;-48
2022/11/08 00:39:23;;;;;;;11.55;3.35;;;12.50;99.90;;;;;;5003761;28;20265;-53
2022/11/08 00:41:49;;;;;;;15.82;3.67;;;12.50;99.90;;;;;;5002845;28;20128;-50
2022/11/08 00:44:15;;;;;;;15.75;2.90;;;12.40;99.90;;;;;;5004642;28;21183;-48
2022/11/08 00:46:41;;;;;;;11.02;2.40;;;12.40;99.90;;;;;;5007466;28;20076;-51
2022/11/08 00:49:07;;;;;;;16.08;3.13;;;12.40;99.90;;;;;;5092450;28;20048;-48
2022/11/08 00:51:33;;;;;;;14.70;3.20;;;12.50;99.90;;;;;;5004926;28;20133;-50
2022/11/08 00:53:59;;;;;;;14.90;3.25;;;12.50;99.90;;;;;;5006813;28;20514;-48
2022/11/08 00:56:25;;;;;;;14.90;3.53;;;12.60;99.90;;;;;;5000454;28;20112;-47
2022/11/08 00:58:50;;;;;;;15.27;3.00;;;12.40;99.90;;;;;;5003204;28;20045;-47
2022/11/08 01:01:19;;;;;;;13.52;2.60;;;12.40;99.90;;;;;;5002212;28;20038;-47
2022/11/08 01:03:46;;;;;;;10.73;2.47;;;12.30;99.90;;;;;;5001373;28;20548;-48
2022/11/08 01:06:13;;;;;;;17.10;3.78;;;12.40;99.90;;;;;;5002378;28;20964;-50
2022/11/08 01:08:40;;;;;;;15.30;3.47;;;12.30;99.90;;;;;;5000921;28;20034;-52
2022/11/08 01:11:09;;;;;;;12.93;2.67;;;12.40;99.90;;;;;;5005658;28;20060;-48
2022/11/08 01:13:35;;;;;;;17.75;3.08;;;12.50;99.90;;;;;;5006188;28;20050;-49
2022/11/08 01:16:13;;;;;;;13.45;2.80;;;13.20;99.90;;;;;;5006184;28;20050;-49
2022/11/08 01:18:39;;;;;;;13.85;2.80;;;12.50;99.90;;;;;;5004937;28;20066;-51
2022/11/08 01:21:05;;;;;;;15.95;3.60;;;12.30;99.90;;;;;;5007981;28;20037;-47
2022/11/08 01:23:31;;;;;;;11.93;2.65;;;12.50;99.90;;;;;;5007657;28;20514;-49
2022/11/08 01:26:04;;;;;;;12.82;2.75;;;12.50;99.90;;;;;;5006954;28;20326;-48
2022/11/08 01:28:30;;;;;;;13.23;2.20;;;12.40;99.90;;;;;;5007564;28;20046;-50
2022/11/08 01:30:56;;;;;;;12.23;2.53;;;12.70;99.90;;;;;;5005156;28;20038;-48
2022/11/08 01:33:22;;;;;;;11.05;2.50;;;12.30;99.90;;;;;;5008521;28;20095;-48
2022/11/08 01:35:47;;;;;;;15.75;2.83;;;12.20;99.90;;;;;;5006539;28;20554;-47
2022/11/08 01:38:13;;;;;;;13.70;3.53;;;12.30;99.90;;;;;;5004167;28;20050;-47
2022/11/08 01:40:47;;;;;;;13.93;3.78;;;12.20;99.90;;;;;;5005255;28;20042;-47
2022/11/08 01:43:24;;;;;;;11.90;2.70;;;12.30;99.90;;;;;;5006814;28;20046;-50
2022/11/08 01:46:09;;;;;;;12.35;2.67;;;12.10;99.90;;;;;;5010078;28;20048;-48
2022/11/08 01:48:44;;;;;;;11.00;2.92;;;12.30;99.90;;;;;;5007789;28;20068;-48
2022/11/08 01:51:14;;;;;;;12.88;3.00;;;12.10;99.90;;;;;;5008351;28;20053;-48
2022/11/08 01:53:40;;;;;;;12.32;2.35;;;12.20;99.90;;;;;;5007330;28;20041;-49
2022/11/08 01:56:09;;;;;;;15.43;2.90;;;14.30;99.90;;;;;;5008002;28;20095;-47
2022/11/08 01:58:37;;;;;;;14.85;3.05;;;12.10;99.90;;;;;;5009182;28;20042;-48
2022/11/08 02:01:03;;;;;;;15.52;2.90;;;12.00;99.90;;;;;;5009287;28;20124;-47
2022/11/08 02:03:32;;;;;;;12.32;3.33;;;12.10;99.90;;;;;;4999433;28;20132;-47
2022/11/08 02:05:59;;;;;;;16.63;2.90;;;12.00;99.90;;;;;;5003110;28;20073;-47
2022/11/08 02:08:38;;;;;;;13.25;2.45;;;12.20;99.90;;;;;;5005970;28;20053;-48
2022/11/08 02:11:05;;;;;;;11.73;3.33;;;12.10;99.90;;;;;;5004124;28;20507;-48
2022/11/08 02:13:33;;;;;;;15.63;2.70;;;12.00;99.90;;;;;;5007127;28;20068;-47
2022/11/08 02:15:59;;;;;;;11.18;2.38;;;13.80;99.90;;;;;;5007367;28;20045;-49
2022/11/08 02:18:27;;;;;;;12.38;2.40;;;12.00;99.90;;;;;;5004683;28;20048;-50
2022/11/08 02:21:49;;;;;;;10.23;2.17;;;12.10;99.90;;;;;;5002359;28;20086;-48
2022/11/08 02:24:16;;;;;;;13.80;2.75;;;12.00;99.90;;;;;;5009692;28;20448;-53
2022/11/08 02:26:44;;;;;;;11.57;2.85;;;11.90;99.90;;;;;;5006914;28;20423;-48
2022/11/08 02:29:27;;;;;;;17.20;3.28;;;11.80;99.90;;;;;;5004961;28;20041;-51
2022/11/08 02:31:54;;;;;;;12.85;2.15;;;11.80;99.90;;;;;;5006831;28;20714;-48
2022/11/08 02:34:26;;;;;;;11.82;2.65;;;12.80;99.90;;;;;;5005586;28;20045;-50
2022/11/08 02:36:52;;;;;;;10.00;2.28;;;11.80;99.90;;;;;;5005844;28;20057;-49
2022/11/08 02:39:18;;;;;;;11.73;2.60;;;11.80;99.90;;;;;;5004856;28;20045;-48
2022/11/08 02:41:43;;;;;;;9.90;2.28;;;11.70;99.90;;;;;;5007456;28;20041;-48
2022/11/08 02:44:09;;;;;;;15.93;2.75;;;11.60;99.90;;;;;;5005665;28;20147;-48
2022/11/08 02:46:35;;;;;;;16.13;3.15;;;13.30;99.90;;;;;;5004710;28;20937;-48
2022/11/08 02:49:01;;;;;;;12.70;2.72;;;12.20;99.90;;;;;;5003742;28;20034;-52
2022/11/08 02:51:26;;;;;;;15.40;2.55;;;13.50;99.90;;;;;;5004367;28;20508;-53
2022/11/08 02:53:52;;;;;;;12.75;2.40;;;11.40;99.90;;;;;;5006405;28;20041;-51
2022/11/08 02:56:18;;;;;;;8.48;2.47;;;11.30;99.90;;;;;;5004481;28;20048;-47
2022/11/08 02:58:43;;;;;;;11.20;2.45;;;12.10;99.90;;;;;;5006919;28;20069;-49
2022/11/08 03:01:09;;;;;;;12.30;2.70;;;11.20;99.90;;;;;;5007040;28;20084;-47
2022/11/08 03:03:35;;;;;;;12.77;2.55;;;11.20;99.90;;;;;;5007038;28;20925;-50
2022/11/08 03:06:01;;;;;;;14.52;3.10;;;11.10;99.90;;;;;;5008172;28;20042;-46
2022/11/08 03:08:26;;;;;;;12.20;3.17;;;11.30;99.90;;;;;;5004640;28;20052;-47
2022/11/08 03:10:52;;;;;;;12.77;2.65;;;11.50;99.90;;;;;;5001604;28;20057;-48
2022/11/08 03:13:18;;;;;;;14.68;2.88;;;11.00;99.90;;;;;;5006047;28;20037;-53
2022/11/08 03:15:43;;;;;;;15.40;2.45;;;13.10;99.90;;;;;;5004736;28;20041;-48
2022/11/08 03:18:09;;;;;;;11.52;2.30;;;11.00;99.90;;;;;;5005294;28;20212;-47
2022/11/08 03:20:35;;;;;;;9.82;2.45;;;11.00;99.90;;;;;;5003890;28;20046;-47
2022/11/08 03:23:04;;;;;;;15.95;2.80;;;10.90;99.90;;;;;;5002992;28;20056;-48
2022/11/08 03:25:30;;;;;;;10.60;2.67;;;10.80;99.90;;;;;;4999850;28;20098;-49
2022/11/08 03:28:00;;;;;;;10.07;2.50;;;10.90;99.90;;;;;;5002556;28;20056;-49
2022/11/08 03:30:26;;;;;;;11.75;2.30;;;11.00;99.90;;;;;;5004918;28;20097;-50
2022/11/08 03:32:52;;;;;;;11.82;2.50;;;10.80;99.90;;;;;;5004001;28;20782;-47
2022/11/08 03:35:17;;;;;;;13.52;3.25;;;12.30;99.90;;;;;;4987681;28;20044;-48
2022/11/08 03:37:54;;;;;;;13.07;3.00;;;11.70;99.90;;;;;;5007672;28;20049;-48
2022/11/08 03:40:20;;;;;;;14.75;2.67;;;10.90;99.90;;;;;;5002696;28;20051;-50
2022/11/08 03:42:46;;;;;;;12.65;2.55;;;12.00;99.90;;;;;;5003593;28;20044;-50
2022/11/08 03:45:13;;;;;;;19.77;3.15;;;13.10;99.90;;;;;;5004315;28;20299;-48
2022/11/08 03:47:42;;;;;;;11.27;2.58;;;10.90;99.90;;;;;;5001794;28;20137;-47
2022/11/08 03:50:08;;;;;;;12.05;2.67;;;12.90;99.90;;;;;;5006855;28;20041;-48
2022/11/08 03:52:48;;;;;;;9.88;2.75;;;10.80;99.90;;;;;;5003072;28;20054;-48
2022/11/08 03:55:15;;;;;;;12.50;2.35;;;10.70;99.90;;;;;;5001631;28;20052;-51
2022/11/08 03:57:41;;;;;;;13.05;2.67;;;10.60;99.90;;;;;;5003677;28;20910;-49
2022/11/08 04:00:09;;;;;;;12.90;2.63;;;10.60;99.90;;;;;;5004840;28;20051;-50
2022/11/08 04:02:35;;;;;;;14.00;2.85;;;10.70;99.90;;;;;;5003755;28;20048;-51
2022/11/08 04:05:01;;;;;;;15.02;3.03;;;10.60;99.90;;;;;;5005056;28;20038;-51
2022/11/08 04:07:27;;;;;;;8.57;2.35;;;10.70;99.90;;;;;;5003472;28;20041;-49
2022/11/08 04:09:56;;;;;;;9.45;2.90;;;10.60;99.90;;;;;;5002866;28;20045;-47
2022/11/08 04:15:16;;;;;;;9.63;3.00;;;11.90;99.90;;;;;;5001359;28;20050;-49
2022/11/08 04:23:12;;;;;;;13.25;3.70;;;10.60;99.90;;;;;;5004205;28;20041;-47
2022/11/08 04:25:39;;;;;;;9.52;2.95;;;10.40;99.90;;;;;;5004234;28;20042;-47
2022/11/08 04:28:05;;;;;;;11.93;3.05;;;10.40;99.90;;;;;;5001658;28;20498;-47
2022/11/08 04:30:31;;;;;;;11.90;3.15;;;10.60;99.90;;;;;;5002686;28;20117;-47
2022/11/08 04:32:59;;;;;;;14.20;2.40;;;10.30;99.90;;;;;;5007305;28;20049;-48
2022/11/08 04:35:25;;;;;;;11.38;3.17;;;10.60;99.90;;;;;;5003735;28;20044;-49
2022/11/08 04:37:51;;;;;;;12.63;2.70;;;10.40;99.90;;;;;;5006129;28;20045;-49
2022/11/08 04:40:16;;;;;;;14.25;2.80;;;10.40;99.90;;;;;;5005328;28;20049;-49
2022/11/08 04:42:45;;;;;;;13.95;3.00;;;10.20;99.90;;;;;;5001165;28;20261;-48
2022/11/08 04:45:11;;;;;;;10.75;3.05;;;11.70;99.90;;;;;;5004105;28;20068;-47
2022/11/08 04:47:36;;;;;;;9.13;2.47;;;10.40;99.90;;;;;;5006839;28;20571;-50
2022/11/08 04:50:02;;;;;;;11.27;2.85;;;12.30;99.90;;;;;;5076196;28;20045;-49
2022/11/08 04:52:28;;;;;;;11.10;2.50;;;10.30;99.90;;;;;;5007055;28;20037;-47
2022/11/08 04:54:54;;;;;;;11.52;2.85;;;10.60;99.90;;;;;;5007582;28;20041;-47
2022/11/08 04:57:20;;;;;;;11.25;2.97;;;10.50;99.90;;;;;;5006183;28;20749;-49
2022/11/08 04:59:46;;;;;;;10.65;2.65;;;10.40;99.90;;;;;;5007179;28;20120;-47
2022/11/08 05:02:11;;;;;;;9.07;2.90;;;12.60;99.90;;;;;;5006827;28;20471;-49
2022/11/08 05:04:37;;;;;;;9.45;2.65;;;10.60;99.90;;;;;;5007059;28;20060;-47
2022/11/08 05:07:03;;;;;;;14.68;4.05;;;10.40;99.90;;;;;;5008831;28;20053;-49
2022/11/08 05:09:29;;;;;;;8.43;2.80;;;10.30;99.90;;;;;;5008009;28;20742;-47
2022/11/08 05:11:55;;;;;;;12.65;3.30;;;10.30;99.90;;;;;;5006274;28;20502;-52
2022/11/08 05:14:20;;;;;;;9.60;2.83;;;10.90;99.90;;;;;;5008505;28;20080;-47
2022/11/08 05:16:46;;;;;;;15.38;3.45;;;11.80;99.90;;;;;;5007963;28;20272;-48
2022/11/08 05:19:12;;;;;;;10.85;3.25;;;10.20;99.90;;;;;;5006974;28;20495;-47
2022/11/08 05:24:22;;;;;;;11.40;2.85;;;10.70;99.90;;;;;;5009949;28;20049;-50
2022/11/08 05:26:47;;;;;;;14.45;3.20;;;10.30;99.90;;;;;;5008448;28;20041;-49
2022/11/08 05:29:15;;;;;;;10.23;3.55;;;10.20;99.90;;;;;;5007919;28;20042;-51
2022/11/08 05:31:40;;;;;;;10.68;2.90;;;10.20;99.90;;;;;;5006933;28;20410;-49
2022/11/08 05:34:06;;;;;;;11.65;2.95;;;10.40;99.90;;;;;;5020427;28;21184;-47
2022/11/08 05:36:33;;;;;;;9.80;2.83;;;10.10;99.90;;;;;;5003617;28;20053;-47
2022/11/08 05:38:58;;;;;;;11.93;2.80;;;10.20;99.90;;;;;;5003679;28;20412;-48
2022/11/08 05:41:25;;;;;;;13.18;3.25;;;10.20;99.90;;;;;;5009004;28;20033;-51
2022/11/08 05:43:53;;;;;;;10.90;3.13;;;12.10;99.90;;;;;;4987255;28;20042;-49
2022/11/08 05:46:20;;;;;;;9.32;2.65;;;10.90;99.90;;;;;;5003610;28;20209;-48
2022/11/08 05:48:46;;;;;;;8.65;2.60;;;11.60;99.90;;;;;;5004877;28;20042;-49
2022/11/08 05:51:13;;;;;;;9.82;3.00;;;10.30;99.90;;;;;;5004110;28;20754;-46
2022/11/08 05:53:40;;;;;;;9.95;2.22;;;10.20;99.90;;;;;;5006426;28;20128;-47
2022/11/08 05:56:06;;;;;;;14.02;2.70;;;11.10;99.90;;;;;;5004737;28;20639;-51
2022/11/08 05:58:34;;;;;;;10.85;2.45;;;10.20;99.90;;;;;;5004766;28;20053;-47
2022/11/08 06:01:11;;;;;;;8.45;2.30;;;12.30;99.90;;;;;;5006568;28;20432;-51
2022/11/08 06:03:37;;;;;;;10.70;2.42;;;10.10;99.90;;;;;;5003632;28;20990;-48
2022/11/08 06:06:06;;;;;;;10.05;2.13;;;11.80;99.90;;;;;;5007604;28;20526;-48
2022/11/08 06:08:31;;;;;;;8.38;2.35;;;10.30;99.90;;;;;;5006523;28;20057;-50
2022/11/08 06:11:08;;;;;;;10.70;2.10;;;10.50;99.90;;;;;;4999544;28;20094;-48
2022/11/08 06:13:34;;;;;;;12.57;2.67;;;10.10;99.90;;;;;;4999927;28;20053;-47
2022/11/08 06:16:01;;;;;;;8.75;2.50;;;11.50;99.90;;;;;;5004365;28;20041;-49
2022/11/08 06:18:28;;;;;;;11.02;2.17;;;10.20;99.90;;;;;;5002046;28;20559;-51
2022/11/08 06:20:54;;;;;;;12.10;2.40;;;10.10;99.90;;;;;;5005568;28;20049;-52
2022/11/08 06:23:19;;;;;;;10.30;2.95;;;12.00;99.90;;;;;;5006189;28;20093;-49
2022/11/08 06:25:46;;;;;;;11.25;2.45;;;11.00;99.90;;;;;;5006146;28;20077;-51
2022/11/08 06:28:13;;;;;;;10.85;2.15;;;10.10;99.90;;;;;;5006204;28;20053;-48
2022/11/08 06:30:39;;;;;;;9.35;2.53;;;11.20;99.90;;;;;;5005874;28;20900;-47
2022/11/08 06:33:05;;;;;;;10.60;2.42;;;10.10;99.90;;;;;;5005498;28;20193;-47
2022/11/08 06:35:30;;;;;;;10.00;2.50;;;11.40;99.90;;;;;;5004899;28;20044;-49
2022/11/08 06:37:56;;;;;;;9.90;2.20;;;10.70;99.90;;;;;;5004579;28;20133;-52
2022/11/08 06:40:22;;;;;;;7.03;1.98;;;10.30;99.90;;;;;;5007810;28;20387;-48
2022/11/08 06:42:48;;;;;;;11.80;3.28;;;10.20;99.90;;;;;;5004030;28;20045;-52
2022/11/08 06:45:13;;;;;;;10.32;2.15;;;10.30;99.90;;;;;;5005219;28;20598;-51
2022/11/08 06:47:39;;;;;;;11.57;2.42;;;10.20;99.90;;;;;;5007879;28;20069;-50
2022/11/08 06:50:05;;;;;;;11.38;2.22;;;10.30;99.90;;;;;;5008594;28;20121;-53
2022/11/08 06:52:31;;;;;;;13.23;2.50;;;10.40;99.90;;;;;;5006820;28;20041;-49
2022/11/08 06:54:57;;;;;;;10.43;2.60;;;10.30;99.90;;;;;;5002510;28;20042;-49
2022/11/08 06:57:22;;;;;;;9.90;1.92;;;10.40;99.90;;;;;;5002056;28;20041;-49
2022/11/08 06:59:48;;;;;;;9.20;2.05;;;10.40;99.90;;;;;;5003844;28;20651;-48
2022/11/08 07:02:14;;;;;;;8.98;2.10;;;10.40;99.90;;;;;;5005728;28;20037;-49
2022/11/08 07:04:39;;;;;;;7.32;1.85;;;10.80;99.90;;;;;;5005669;28;20038;-49
2022/11/08 07:07:05;;;;;;;8.35;2.10;;;8.50;99.90;;;;;;5003110;28;20047;-54
2022/11/08 07:09:31;;;;;;;15.65;2.67;;;11.50;99.90;;;;;;5006939;28;20402;-52
2022/11/08 07:11:58;;;;;;;7.72;2.00;;;10.50;99.90;;;;;;5004762;28;20129;-48
2022/11/08 07:14:24;;;;;;;12.13;2.80;;;10.70;99.90;;;;;;5005294;28;20299;-53
2022/11/08 07:16:49;;;;;;;9.57;2.40;;;11.10;99.90;;;;;;5003229;28;20049;-49
2022/11/08 07:19:15;;;;;;;13.80;4.07;;;10.70;99.90;;;;;;5005733;28;20045;-52
2022/11/08 07:21:41;;;;;;;8.32;2.10;;;10.60;99.90;;;;;;5005474;28;20124;-50
2022/11/08 07:24:06;;;;;;;7.20;2.03;;;10.60;99.90;;;;;;5004014;28;20056;-51
2022/11/08 07:26:32;;;;;;;10.30;3.25;;;10.80;99.90;;;;;;5005309;28;20038;-48
2022/11/08 07:28:58;;;;;;;8.88;2.63;;;11.70;99.90;;;;;;5004797;28;20079;-53
2022/11/08 07:31:23;;;;;;;12.15;2.95;;;10.70;99.90;;;;;;5005211;28;20041;-52
2022/11/08 07:33:49;;;;;;;11.15;2.65;;;10.70;99.90;;;;;;5002218;28;20403;-52
2022/11/08 07:36:15;;;;;;;9.98;2.45;;;11.70;99.90;;;;;;5005715;28;20503;-48
2022/11/08 07:38:41;;;;;;;8.38;2.70;;;10.80;99.90;;;;;;5004658;28;20048;-50
2022/11/08 07:41:08;;;;;;;10.70;2.90;;;11.00;99.90;;;;;;5007447;28;20037;-51
2022/11/08 07:43:34;;;;;;;8.43;2.45;;;11.30;99.90;;;;;;5005814;28;20145;-48
2022/11/08 07:46:01;;;;;;;12.77;3.03;;;11.20;99.90;;;;;;5005738;28;20390;-50
2022/11/08 07:48:28;;;;;;;10.27;2.60;;;10.80;99.90;;;;;;5002843;28;20050;-49
2022/11/08 07:50:54;;;;;;;9.93;3.17;;;11.70;99.90;;;;;;5003560;28;20593;-49
2022/11/08 07:53:20;;;;;;;10.35;2.88;;;10.80;99.90;;;;;;5002922;28;20059;-49
2022/11/08 07:55:49;;;;;;;7.82;2.45;;;10.90;99.90;;;;;;5005267;28;20515;-50
2022/11/08 07:58:15;;;;;;;8.77;2.55;;;10.90;99.90;;;;;;5004815;28;20038;-47
2022/11/08 08:00:42;;;;;;;11.38;2.33;;;13.10;99.90;;;;;;5008521;28;20043;-50
2022/11/08 08:03:10;;;;;;;8.32;2.22;;;10.90;99.90;;;;;;5006257;28;20049;-48
2022/11/08 08:05:43;;;;;;;9.13;2.60;;;11.10;99.90;;;;;;5004322;28;20037;-51
2022/11/08 08:08:12;;;;;;;9.13;2.47;;;11.10;99.90;;;;;;5006110;28;20344;-52
2022/11/08 08:10:39;;;;;;;8.55;2.53;;;13.30;99.90;;;;;;5005329;28;20120;-50
2022/11/08 08:13:05;;;;;;;9.32;2.40;;;11.80;99.90;;;;;;5003703;28;20046;-49
2022/11/08 08:15:31;;;;;;;11.55;2.97;;;11.30;99.90;;;;;;5003355;28;20056;-47
2022/11/08 08:18:00;;;;;;;9.10;2.55;;;10.20;99.90;;;;;;5002966;28;20042;-50
2022/11/08 08:20:26;;;;;;;10.23;2.92;;;11.50;99.90;;;;;;5003064;28;20034;-49
2022/11/08 08:22:52;;;;;;;7.40;2.42;;;11.30;99.90;;;;;;5003514;28;20126;-49
2022/11/08 08:25:18;;;;;;;7.03;2.13;;;11.30;99.90;;;;;;5002523;28;20037;-48
2022/11/08 08:27:48;;;;;;;8.27;3.03;;;11.30;99.90;;;;;;5004413;28;20784;-49
2022/11/08 08:30:14;;;;;;;13.20;2.72;;;11.40;99.90;;;;;;4999096;28;20116;-51
2022/11/08 08:32:40;;;;;;;6.10;2.30;;;11.50;99.90;;;;;;5005078;28;20069;-48
2022/11/08 08:35:06;;;;;;;6.57;2.25;;;11.40;99.90;;;;;;5004500;28;20174;-52
2022/11/08 08:37:32;;;;;;;8.43;2.30;;;11.90;99.90;;;;;;5000621;28;20041;-50
2022/11/08 08:39:58;;;;;;;10.57;2.60;;;12.10;99.90;;;;;;5002659;28;20041;-50
2022/11/08 08:42:24;;;;;;;12.48;2.50;;;12.70;95.70;;;;;;5005888;28;20034;-49
2022/11/08 08:44:50;;;;;;;7.28;2.45;;;12.90;84.00;;;;;;5005029;28;20064;-50
2022/11/08 08:47:15;;;;;;;7.65;2.10;;;13.00;82.70;;;;;;5004138;28;20046;-48
2022/11/08 08:49:41;;;;;;;7.90;2.20;;;13.00;79.80;;;;;;5003702;28;20717;-49
2022/11/08 08:52:07;;;;;;;6.85;2.35;;;13.00;78.70;;;;;;5003614;28;20046;-50
2022/11/08 08:54:32;;;;;;;7.90;2.17;;;13.00;76.70;;;;;;5001700;28;20197;-48
2022/11/08 08:56:58;;;;;;;8.60;2.38;;;13.00;77.60;;;;;;5001662;28;20083;-47
2022/11/08 08:59:25;;;;;;;6.63;2.28;;;13.20;75.90;;;;;;5005274;28;20128;-51
2022/11/08 09:01:50;;;;;;;9.95;2.35;;;13.30;70.60;;;;;;5003771;28;20522;-48
2022/11/08 09:04:16;;;;;;;8.90;2.25;;;13.40;71.50;;;;;;5005264;28;20056;-50
2022/11/08 09:06:42;;;;;;;7.43;2.20;;;13.50;63.80;;;;;;5005058;28;20085;-49
2022/11/08 09:09:07;;;;;;;6.68;2.15;;;13.30;65.30;;;;;;5003697;28;20122;-52
2022/11/08 09:11:33;;;;;;;7.72;2.20;;;14.40;68.40;;;;;;5001353;28;20129;-49
2022/11/08 09:13:59;;;;;;;6.18;2.20;;;13.20;66.90;;;;;;5002473;28;20037;-50
2022/11/08 09:16:24;;;;;;;7.18;2.00;;;12.90;70.00;;;;;;5005307;28;20049;-50
2022/11/08 09:18:50;;;;;;;7.80;2.35;;;12.90;77.80;;;;;;5004818;28;20518;-51
2022/11/08 09:21:16;;;;;;;9.63;2.15;;;12.80;81.30;;;;;;5004867;28;20049;-51
2022/11/08 09:23:42;;;;;;;6.47;2.10;;;12.80;78.40;;;;;;4998817;28;20076;-50
2022/11/08 09:26:09;;;;;;;5.75;1.85;;;12.80;76.80;;;;;;5004354;28;20069;-52
2022/11/08 09:28:35;;;;;;;8.77;2.20;;;12.80;74.80;;;;;;5003643;28;20490;-48
2022/11/08 09:31:03;;;;;;;6.35;1.80;;;12.80;77.90;;;;;;5003190;28;20052;-49
2022/11/08 09:33:29;;;;;;;12.50;2.50;;;12.70;81.10;;;;;;5002328;28;20045;-51
2022/11/08 09:35:57;;;;;;;9.27;2.00;;;12.80;80.80;;;;;;5003537;28;20518;-49
2022/11/08 09:38:23;;;;;;;6.00;1.90;;;12.90;78.40;;;;;;5004928;28;20042;-51
2022/11/08 09:41:12;;;;;;;7.60;2.15;;;12.90;75.50;;;;;;5003700;28;20131;-50
2022/11/08 09:43:59;;;;;;;5.03;1.65;;;12.80;62.50;;;;;;5007829;28;20064;-51
2022/11/08 09:46:36;;;;;;;5.88;1.90;;;12.90;55.90;;;;;;5006375;28;20234;-51
2022/11/08 09:49:09;;;;;;;6.60;1.95;;;13.80;61.10;;;;;;5004422;28;20064;-52
2022/11/08 09:51:35;;;;;;;4.47;1.55;;;12.90;57.10;;;;;;5002839;28;20577;-48
2022/11/08 09:54:04;;;;;;;6.75;2.00;;;13.00;63.30;;;;;;5005738;28;20726;-51
2022/11/08 09:56:35;;;;;;;5.45;1.80;;;13.10;57.70;;;;;;5003944;28;20088;-49
2022/11/08 09:59:10;;;;;;;9.27;1.80;;;13.10;53.40;;;;;;5003664;28;20038;-48
2022/11/08 10:01:36;;;;;;;6.20;1.80;;;13.00;40.10;;;;;;5002835;28;20125;-49
2022/11/08 10:04:17;;;;;;;5.50;1.83;;;13.10;48.20;;;;;;5006886;28;20048;-50
2022/11/08 10:06:42;;;;;;;7.63;1.75;;;13.20;45.60;;;;;;5006125;28;20056;-48
2022/11/08 10:09:42;;;;;;;5.95;1.52;;;13.60;51.10;;;;;;5006867;28;20204;-48
2022/11/08 10:12:32;;;;;;;4.53;1.98;;;13.10;41.70;;;;;;5006210;28;20534;-47
2022/11/08 10:15:16;;;;;;;6.25;1.73;;;13.00;50.80;;;;;;5000712;28;20133;-49
2022/11/08 10:17:56;;;;;;;4.85;1.80;;;13.00;46.90;;;;;;5008816;28;20051;-50
2022/11/08 10:20:31;;;;;;;7.63;2.15;;;13.10;45.90;;;;;;5003898;28;20082;-50
2022/11/08 10:23:20;;;;;;;3.97;1.42;;;13.20;52.30;;;;;;5007883;28;20076;-52
2022/11/08 10:26:06;;;;;;;9.10;1.65;;;13.30;35.50;;;;;;5006765;28;20052;-50
2022/11/08 10:28:49;;;;;;;6.07;1.77;;;13.20;41.80;;;;;;5012640;28;20049;-48
2022/11/08 10:31:18;;;;;;;7.72;1.80;;;13.30;34.30;;;;;;5007853;28;20045;-51
2022/11/08 10:33:51;;;;;;;8.50;1.88;;;13.10;44.40;;;;;;5006037;28;20050;-51
2022/11/08 10:36:32;;;;;;;6.25;1.77;;;13.30;45.30;;;;;;5004804;28;20567;-48
2022/11/08 10:39:11;;;;;;;4.47;1.38;;;13.20;38.20;;;;;;5005566;28;20050;-52
2022/11/08 10:41:57;;;;;;;5.45;1.80;;;13.20;46.60;;;;;;5006817;28;20049;-53
2022/11/08 10:44:24;;;;;;;5.25;1.70;;;13.80;36.10;;;;;;5003728;28;20049;-50
2022/11/08 10:46:56;;;;;;;6.05;1.70;;;13.00;39.40;;;;;;5008478;28;20495;-53
2022/11/08 10:49:26;;;;;;;4.47;1.75;;;13.00;40.00;;;;;;5006442;28;20053;-51
2022/11/08 10:51:57;;;;;;;4.07;1.70;;;12.90;43.40;;;;;;5006283;28;20583;-52
2022/11/08 10:54:45;;;;;;;4.50;1.50;;;13.00;48.20;;;;;;5003678;28;20046;-48
2022/11/08 10:57:17;;;;;;;5.55;2.45;;;13.00;48.10;;;;;;5004733;28;20092;-50
2022/11/08 10:59:43;;;;;;;5.35;1.67;;;13.10;45.60;;;;;;5005896;28;20037;-49
2022/11/08 11:02:28;;;;;;;4.10;1.65;;;13.10;46.90;;;;;;5005539;28;20125;-50
2022/11/08 11:05:22;;;;;;;3.10;1.50;;;13.10;43.50;;;;;;5005199;28;20638;-51
2022/11/08 11:07:57;;;;;;;5.20;2.03;;;13.20;36.70;;;;;;5003109;28;20042;-51
2022/11/08 11:10:26;;;;;;;8.68;1.88;;;11.30;44.60;;;;;;5006168;28;20515;-51
2022/11/08 11:13:02;;;;;;;3.20;1.48;;;13.20;42.40;;;;;;5003756;28;20407;-47
2022/11/08 11:15:34;;;;;;;5.75;1.48;;;13.40;51.70;;;;;;5002896;28;20527;-50
2022/11/08 11:18:00;;;;;;;4.63;1.48;;;13.30;36.90;;;;;;5007069;28;20141;-50
2022/11/08 11:20:26;;;;;;;9.48;2.20;;;13.30;39.90;;;;;;5000749;28;20049;-46
2022/11/08 11:22:52;;;;;;;5.13;1.75;;;13.40;41.20;;;;;;5002165;28;21166;-51
2022/11/08 11:25:22;;;;;;;5.65;1.75;;;13.30;47.00;;;;;;5006609;28;20037;-50
2022/11/08 11:27:56;;;;;;;7.13;1.85;;;13.50;49.90;;;;;;5003074;28;20049;-50
2022/11/08 11:30:27;;;;;;;8.10;1.70;;;13.60;49.20;;;;;;5004321;28;21345;-52
2022/11/08 11:33:02;;;;;;;5.03;1.77;;;13.60;42.20;;;;;;5006805;28;20060;-48
2022/11/08 11:35:44;;;;;;;5.75;1.52;;;13.80;42.80;;;;;;5004313;28;20845;-48
2022/11/08 11:38:37;;;;;;;3.97;1.60;;;13.80;34.30;;;;;;5007343;28;20041;-47
2022/11/08 11:41:14;;;;;;;6.68;1.85;;;13.80;29.10;;;;;;5005376;28;20053;-49
2022/11/08 11:43:45;;;;;;;7.25;1.83;;;13.70;35.40;;;;;;5007373;28;20042;-49
2022/11/08 11:46:24;;;;;;;4.50;1.58;;;13.80;31.90;;;;;;5005217;28;20732;-49
2022/11/08 11:48:58;;;;;;;8.50;1.70;;;13.70;20.60;;;;;;5003325;28;20811;-52
2022/11/08 11:51:27;;;;;;;5.10;1.35;;;13.90;18.60;;;;;;5006197;28;20072;-53
2022/11/08 11:53:54;;;;;;;3.97;1.70;;;13.70;19.10;;;;;;5003900;28;20045;-50
2022/11/08 11:56:39;;;;;;;6.45;1.80;;;13.90;22.90;;;;;;4999944;28;20045;-48
2022/11/08 11:59:24;;;;;;;5.63;1.50;;;13.90;25.70;;;;;;5004101;28;20057;-48
2022/11/08 12:02:34;;;;;;;5.15;1.70;;;15.80;14.80;;;;;;5004665;28;20045;-53
2022/11/08 12:05:15;;;;;;;5.40;1.70;;;14.00;14.60;;;;;;5003226;28;20053;-51
2022/11/08 12:08:05;;;;;;;6.47;1.70;;;14.00;23.50;;;;;;5004776;28;20085;-47
2022/11/08 12:11:03;;;;;;;5.93;1.83;;;13.80;18.10;;;;;;5023290;28;20049;-48
2022/11/08 12:13:36;;;;;;;5.40;1.73;;;14.00;13.70;;;;;;5000999;28;20056;-47
2022/11/08 12:16:40;;;;;;;5.38;1.38;;;13.80;30.40;;;;;;4999224;28;20148;-48
2022/11/08 12:19:20;;;;;;;4.43;1.70;;;13.90;23.90;;;;;;5011483;28;20140;-47
2022/11/08 12:22:00;;;;;;;4.07;1.90;;;13.90;25.00;;;;;;5002964;28;20049;-47
2022/11/08 12:24:45;;;;;;;5.05;1.70;;;13.80;33.90;;;;;;5002212;28;20527;-51
2022/11/08 12:27:25;;;;;;;11.88;1.80;;;13.90;23.90;;;;;;5001438;28;20612;-48
2022/11/08 12:29:59;;;;;;;4.18;1.75;;;14.00;25.40;;;;;;5002623;28;21052;-48
2022/11/08 12:33:01;;;;;;;5.25;1.50;;;12.00;22.40;;;;;;5000496;28;20042;-47
2022/11/08 12:35:35;;;;;;;;;;;14.30;23.80;;;;;;5001000;28;20049;-49
2022/11/08 12:38:06;;;;;;;4.38;1.63;;;14.10;17.70;;;;;;5001990;28;19929;-47
2022/11/08 12:40:46;;;;;;;6.40;1.90;;;14.10;15.20;;;;;;5000678;28;20102;-49
2022/11/08 12:43:26;;;;;;;6.38;1.77;;;14.10;15.10;;;;;;5004365;28;20037;-47
2022/11/08 12:46:09;;;;;;;5.80;1.80;;;14.10;12.30;;;;;;5003123;28;20061;-48
2022/11/08 12:49:09;;;;;;;4.65;1.65;;;14.30;9.10;;;;;;5000552;28;20604;-50
2022/11/08 12:52:01;;;;;;;4.97;1.50;;;14.30;9.00;;;;;;4998567;28;20054;-48
2022/11/08 12:54:40;;;;;;;5.35;1.42;;;14.20;18.20;;;;;;4998990;28;20121;-50
2022/11/08 12:57:11;;;;;;;3.20;1.30;;;14.30;16.50;;;;;;5006508;28;20042;-47
2022/11/08 12:59:43;;;;;;;4.57;1.50;;;14.40;25.50;;;;;;5002825;28;20046;-49
2022/11/08 13:02:32;;;;;;;5.25;1.13;;;14.50;29.30;;;;;;5003685;28;20046;-50
2022/11/08 13:05:08;;;;;;;5.00;1.60;;;14.30;10.80;;;;;;5006850;28;20037;-49
2022/11/08 13:07:42;;;;;;;3.70;1.17;;;14.50;13.10;;;;;;5008285;28;20094;-48
2022/11/08 13:10:30;;;;;;;3.88;1.20;;;14.70;17.40;;;;;;5005269;28;20053;-51
2022/11/08 13:13:13;;;;;;;7.22;1.83;;;14.90;1.00;;;;;;5003726;28;20400;-50
2022/11/08 13:16:14;;;;;;;5.57;1.70;;;14.70;9.40;;;;;;5005653;28;20048;-50
2022/11/08 13:18:54;;;;;;;5.47;1.48;;;14.80;5.40;;;;;;5003073;28;20038;-50